sensor_id;sensor_type;location;lat;lon;timestamp;pressure;altitude;pressure_sealevel;temperature;humidity
83183;BME280;73077;49.898;16.450;2023-10-09T00:01:06;98042.06;;;21.67;48.90
83183;BME280;73077;49.898;16.450;2023-10-09T00:03:43;98034.47;;;21.64;48.88
83183;BME280;73077;49.898;16.450;2023-10-09T00:06:10;98028.41;;;21.64;49.13
83183;BME280;73077;49.898;16.450;2023-10-09T00:08:39;98019.00;;;21.61;49.09
83183;BME280;73077;49.898;16.450;2023-10-09T00:11:10;98005.03;;;21.61;49.04
83183;BME280;73077;49.898;16.450;2023-10-09T00:13:42;98019.84;;;21.62;49.03
83183;BME280;73077;49.898;16.450;2023-10-09T00:16:15;98008.34;;;21.63;49.16
83183;BME280;73077;49.898;16.450;2023-10-09T00:18:52;97994.69;;;21.59;49.24
83183;BME280;73077;49.898;16.450;2023-10-09T00:21:19;97992.38;;;21.64;48.97
83183;BME280;73077;49.898;16.450;2023-10-09T00:23:50;97990.91;;;21.62;49.19
83183;BME280;73077;49.898;16.450;2023-10-09T00:26:20;97976.56;;;21.56;49.19
83183;BME280;73077;49.898;16.450;2023-10-09T00:28:50;97950.91;;;21.58;49.02
83183;BME280;73077;49.898;16.450;2023-10-09T00:31:18;97931.97;;;21.55;49.04
83183;BME280;73077;49.898;16.450;2023-10-09T00:33:59;97951.41;;;21.54;49.07
83183;BME280;73077;49.898;16.450;2023-10-09T00:36:30;97966.69;;;21.58;49.17
83183;BME280;73077;49.898;16.450;2023-10-09T00:38:59;97957.31;;;21.56;48.96
83183;BME280;73077;49.898;16.450;2023-10-09T00:41:36;97953.22;;;21.53;49.29
83183;BME280;73077;49.898;16.450;2023-10-09T00:44:02;97942.19;;;21.50;49.04
83183;BME280;73077;49.898;16.450;2023-10-09T00:46:33;97941.53;;;21.48;49.30
83183;BME280;73077;49.898;16.450;2023-10-09T00:49:01;97946.16;;;21.54;48.93
83183;BME280;73077;49.898;16.450;2023-10-09T00:51:29;97936.25;;;21.48;49.19
83183;BME280;73077;49.898;16.450;2023-10-09T00:54:02;97924.75;;;21.49;49.14
83183;BME280;73077;49.898;16.450;2023-10-09T00:56:40;97929.03;;;21.50;49.21
83183;BME280;73077;49.898;16.450;2023-10-09T00:59:18;97915.53;;;21.45;49.30
83183;BME280;73077;49.898;16.450;2023-10-09T01:01:48;97895.47;;;21.44;49.21
83183;BME280;73077;49.898;16.450;2023-10-09T01:04:30;97890.06;;;21.45;49.12
83183;BME280;73077;49.898;16.450;2023-10-09T01:07:02;97904.34;;;21.43;49.16
83183;BME280;73077;49.898;16.450;2023-10-09T01:09:42;97905.97;;;21.44;49.09
83183;BME280;73077;49.898;16.450;2023-10-09T01:12:11;97890.19;;;21.44;49.19
83183;BME280;73077;49.898;16.450;2023-10-09T01:14:43;97896.28;;;21.44;48.92
83183;BME280;73077;49.898;16.450;2023-10-09T01:17:09;97914.88;;;21.43;49.07
83183;BME280;73077;49.898;16.450;2023-10-09T01:19:36;97912.25;;;21.43;49.28
83183;BME280;73077;49.898;16.450;2023-10-09T01:22:02;97921.78;;;21.44;49.13
83183;BME280;73077;49.898;16.450;2023-10-09T01:24:38;97911.25;;;21.44;49.16
83183;BME280;73077;49.898;16.450;2023-10-09T01:27:05;97889.88;;;21.39;49.27
83183;BME280;73077;49.898;16.450;2023-10-09T01:29:43;97886.09;;;21.41;49.19
83183;BME280;73077;49.898;16.450;2023-10-09T01:32:09;97878.38;;;21.40;48.91
83183;BME280;73077;49.898;16.450;2023-10-09T01:34:45;97873.44;;;21.45;49.12
83183;BME280;73077;49.898;16.450;2023-10-09T01:37:17;97862.91;;;21.37;49.06
83183;BME280;73077;49.898;16.450;2023-10-09T01:39:58;97843.81;;;21.35;49.24
83183;BME280;73077;49.898;16.450;2023-10-09T01:42:26;97822.63;;;21.36;49.16
83183;BME280;73077;49.898;16.450;2023-10-09T01:44:57;97838.56;;;21.35;49.19
83183;BME280;73077;49.898;16.450;2023-10-09T01:47:44;97853.69;;;21.33;49.31
83183;BME280;73077;49.898;16.450;2023-10-09T01:50:17;97855.84;;;21.37;49.29
83183;BME280;73077;49.898;16.450;2023-10-09T01:53:01;97838.72;;;21.33;49.32
83183;BME280;73077;49.898;16.450;2023-10-09T01:55:33;97836.28;;;21.32;49.22
83183;BME280;73077;49.898;16.450;2023-10-09T01:58:10;97835.59;;;21.30;49.15
83183;BME280;73077;49.898;16.450;2023-10-09T02:00:56;97828.53;;;21.30;49.29
83183;BME280;73077;49.898;16.450;2023-10-09T02:03:27;97841.53;;;21.32;49.35
83183;BME280;73077;49.898;16.450;2023-10-09T02:05:56;97832.31;;;21.28;49.35
83183;BME280;73077;49.898;16.450;2023-10-09T02:08:43;97835.94;;;21.27;49.24
83183;BME280;73077;49.898;16.450;2023-10-09T02:11:15;97850.09;;;21.26;49.39
83183;BME280;73077;49.898;16.450;2023-10-09T02:14:06;97854.66;;;21.24;49.39
83183;BME280;73077;49.898;16.450;2023-10-09T02:16:43;97852.03;;;21.24;49.37
83183;BME280;73077;49.898;16.450;2023-10-09T02:19:10;97848.94;;;21.28;49.33
83183;BME280;73077;49.898;16.450;2023-10-09T02:21:55;97842.50;;;21.23;49.30
83183;BME280;73077;49.898;16.450;2023-10-09T02:24:24;97816.69;;;21.18;49.36
83183;BME280;73077;49.898;16.450;2023-10-09T02:27:09;97825.25;;;21.20;49.31
83183;BME280;73077;49.898;16.450;2023-10-09T02:29:36;97818.53;;;21.26;49.30
83183;BME280;73077;49.898;16.450;2023-10-09T02:32:04;97831.50;;;21.19;49.38
83183;BME280;73077;49.898;16.450;2023-10-09T02:34:41;97818.00;;;21.22;49.27
83183;BME280;73077;49.898;16.450;2023-10-09T02:37:14;97800.06;;;21.18;49.35
83183;BME280;73077;49.898;16.450;2023-10-09T02:39:40;97794.16;;;21.16;49.42
83183;BME280;73077;49.898;16.450;2023-10-09T02:42:15;97765.88;;;21.18;49.33
83183;BME280;73077;49.898;16.450;2023-10-09T02:44:41;97799.28;;;21.17;49.28
83183;BME280;73077;49.898;16.450;2023-10-09T02:47:13;97826.06;;;21.21;49.42
83183;BME280;73077;49.898;16.450;2023-10-09T02:49:47;97818.84;;;21.15;49.40
83183;BME280;73077;49.898;16.450;2023-10-09T02:52:18;97806.00;;;21.12;49.43
83183;BME280;73077;49.898;16.450;2023-10-09T02:54:46;97795.81;;;21.17;49.31
83183;BME280;73077;49.898;16.450;2023-10-09T02:57:18;97791.06;;;21.20;49.08
83183;BME280;73077;49.898;16.450;2023-10-09T02:59:53;97747.97;;;21.13;49.29
83183;BME280;73077;49.898;16.450;2023-10-09T03:02:23;97734.34;;;21.09;49.37
83183;BME280;73077;49.898;16.450;2023-10-09T03:04:52;97708.72;;;21.12;49.33
83183;BME280;73077;49.898;16.450;2023-10-09T03:07:23;97702.78;;;21.09;49.27
83183;BME280;73077;49.898;16.450;2023-10-09T03:09:50;97716.94;;;21.08;49.58
83183;BME280;73077;49.898;16.450;2023-10-09T03:12:16;97711.34;;;21.12;49.23
83183;BME280;73077;49.898;16.450;2023-10-09T03:14:45;97710.34;;;21.13;49.41
83183;BME280;73077;49.898;16.450;2023-10-09T03:17:11;97723.81;;;21.09;49.30
83183;BME280;73077;49.898;16.450;2023-10-09T03:19:39;97749.13;;;21.10;49.19
83183;BME280;73077;49.898;16.450;2023-10-09T03:22:07;97768.00;;;21.06;49.43
83183;BME280;73077;49.898;16.450;2023-10-09T03:24:40;97740.91;;;21.05;49.32
83183;BME280;73077;49.898;16.450;2023-10-09T03:27:10;97723.31;;;21.06;49.43
83183;BME280;73077;49.898;16.450;2023-10-09T03:29:36;97711.69;;;21.08;49.27
83183;BME280;73077;49.898;16.450;2023-10-09T03:32:03;97732.53;;;21.10;49.37
83183;BME280;73077;49.898;16.450;2023-10-09T03:34:31;97731.22;;;21.06;49.27
83183;BME280;73077;49.898;16.450;2023-10-09T03:36:57;97694.72;;;21.03;49.64
83183;BME280;73077;49.898;16.450;2023-10-09T03:39:46;97671.41;;;21.08;49.42
83183;BME280;73077;49.898;16.450;2023-10-09T03:42:17;97663.97;;;21.03;49.38
83183;BME280;73077;49.898;16.450;2023-10-09T03:44:48;97661.34;;;21.03;49.48
83183;BME280;73077;49.898;16.450;2023-10-09T03:47:23;97676.13;;;21.04;49.32
83183;BME280;73077;49.898;16.450;2023-10-09T03:49:49;97678.13;;;21.02;49.30
83183;BME280;73077;49.898;16.450;2023-10-09T03:52:19;97678.78;;;21.04;49.46
83183;BME280;73077;49.898;16.450;2023-10-09T03:54:45;97678.28;;;21.01;49.39
83183;BME280;73077;49.898;16.450;2023-10-09T03:57:15;97681.09;;;20.99;49.53
83183;BME280;73077;49.898;16.450;2023-10-09T03:59:50;97662.34;;;20.94;49.55
83183;BME280;73077;49.898;16.450;2023-10-09T04:02:17;97644.91;;;21.01;49.18
83183;BME280;73077;49.898;16.450;2023-10-09T04:04:43;97654.28;;;20.96;49.37
83183;BME280;73077;49.898;16.450;2023-10-09T04:07:13;97644.94;;;21.09;49.36
83183;BME280;73077;49.898;16.450;2023-10-09T04:09:42;97627.84;;;21.22;48.81
83183;BME280;73077;49.898;16.450;2023-10-09T04:12:10;97627.94;;;21.44;48.32
83183;BME280;73077;49.898;16.450;2023-10-09T04:14:39;97621.75;;;21.76;47.63
83183;BME280;73077;49.898;16.450;2023-10-09T04:17:19;97610.34;;;22.22;46.56
83183;BME280;73077;49.898;16.450;2023-10-09T04:19:48;97607.41;;;22.71;45.61
83183;BME280;73077;49.898;16.450;2023-10-09T04:22:14;97615.59;;;23.28;44.23
83183;BME280;73077;49.898;16.450;2023-10-09T04:24:52;97603.50;;;23.77;43.11
83183;BME280;73077;49.898;16.450;2023-10-09T04:27:18;97593.69;;;24.07;42.74
83183;BME280;73077;49.898;16.450;2023-10-09T04:29:54;97588.50;;;24.28;42.40
83183;BME280;73077;49.898;16.450;2023-10-09T04:32:20;97584.16;;;24.42;42.23
83183;BME280;73077;49.898;16.450;2023-10-09T04:34:51;97581.81;;;24.54;42.13
83183;BME280;73077;49.898;16.450;2023-10-09T04:37:43;97575.63;;;24.68;41.88
83183;BME280;73077;49.898;16.450;2023-10-09T04:40:10;97570.66;;;24.79;41.88
83183;BME280;73077;49.898;16.450;2023-10-09T04:42:58;97583.38;;;24.90;41.81
83183;BME280;73077;49.898;16.450;2023-10-09T04:45:25;97580.34;;;24.93;41.69
83183;BME280;73077;49.898;16.450;2023-10-09T04:48:10;97549.59;;;24.92;41.91
83183;BME280;73077;49.898;16.450;2023-10-09T04:50:36;97531.09;;;24.92;42.09
83183;BME280;73077;49.898;16.450;2023-10-09T04:53:12;97523.97;;;24.93;42.19
83183;BME280;73077;49.898;16.450;2023-10-09T04:55:48;97531.91;;;24.93;42.32
83183;BME280;73077;49.898;16.450;2023-10-09T04:58:21;97545.13;;;24.93;42.68
83183;BME280;73077;49.898;16.450;2023-10-09T05:01:02;97522.97;;;24.73;42.85
83183;BME280;73077;49.898;16.450;2023-10-09T05:03:31;97512.03;;;24.48;43.72
83183;BME280;73077;49.898;16.450;2023-10-09T05:06:06;97498.88;;;24.61;43.44
83183;BME280;73077;49.898;16.450;2023-10-09T05:08:50;97494.03;;;24.65;43.23
83183;BME280;73077;49.898;16.450;2023-10-09T05:11:23;97498.72;;;24.63;43.39
83183;BME280;73077;49.898;16.450;2023-10-09T05:14:12;97506.22;;;24.59;43.57
83183;BME280;73077;49.898;16.450;2023-10-09T05:16:40;97490.28;;;24.53;43.50
83183;BME280;73077;49.898;16.450;2023-10-09T05:19:27;97475.19;;;24.46;43.51
83183;BME280;73077;49.898;16.450;2023-10-09T05:22:02;97466.41;;;24.39;43.87
83183;BME280;73077;49.898;16.450;2023-10-09T05:24:35;97452.50;;;24.31;43.62
83183;BME280;73077;49.898;16.450;2023-10-09T05:27:12;97460.16;;;24.26;43.87
83183;BME280;73077;49.898;16.450;2023-10-09T05:29:44;97457.50;;;24.19;44.04
83183;BME280;73077;49.898;16.450;2023-10-09T05:32:40;97476.91;;;24.12;44.09
83183;BME280;73077;49.898;16.450;2023-10-09T05:35:14;97478.47;;;24.06;44.12
83183;BME280;73077;49.898;16.450;2023-10-09T05:37:47;97483.69;;;24.00;44.23
83183;BME280;73077;49.898;16.450;2023-10-09T05:40:28;97494.19;;;23.93;44.51
83183;BME280;73077;49.898;16.450;2023-10-09T05:42:58;97517.72;;;23.88;44.49
83183;BME280;73077;49.898;16.450;2023-10-09T05:45:28;97523.75;;;23.82;44.59
83183;BME280;73077;49.898;16.450;2023-10-09T05:48:14;97507.28;;;23.80;44.61
83183;BME280;73077;49.898;16.450;2023-10-09T05:50:43;97502.91;;;23.72;44.63
83183;BME280;73077;49.898;16.450;2023-10-09T05:53:32;97503.28;;;23.69;44.75
83183;BME280;73077;49.898;16.450;2023-10-09T05:56:10;97488.19;;;23.63;44.77
83183;BME280;73077;49.898;16.450;2023-10-09T05:58:57;97488.53;;;23.60;44.95
83183;BME280;73077;49.898;16.450;2023-10-09T06:02:45;97492.75;;;23.55;44.87
83183;BME280;73077;49.898;16.450;2023-10-09T06:06:21;97486.22;;;23.51;45.03
83183;BME280;73077;49.898;16.450;2023-10-09T06:09:30;97484.78;;;23.48;45.13
83183;BME280;73077;49.898;16.450;2023-10-09T06:12:15;97491.78;;;23.41;45.09
83183;BME280;73077;49.898;16.450;2023-10-09T06:15:00;97482.59;;;23.37;45.08
83183;BME280;73077;49.898;16.450;2023-10-09T06:17:57;97475.19;;;23.32;45.03
83183;BME280;73077;49.898;16.450;2023-10-09T06:20:44;97459.28;;;23.26;45.26
83183;BME280;73077;49.898;16.450;2023-10-09T06:23:35;97451.75;;;23.23;45.23
83183;BME280;73077;49.898;16.450;2023-10-09T06:26:30;97451.31;;;23.19;45.44
83183;BME280;73077;49.898;16.450;2023-10-09T06:28:58;97447.38;;;23.15;45.25
83183;BME280;73077;49.898;16.450;2023-10-09T06:31:43;97438.59;;;23.08;45.48
83183;BME280;73077;49.898;16.450;2023-10-09T06:34:27;97442.78;;;23.03;45.49
83183;BME280;73077;49.898;16.450;2023-10-09T06:37:05;97438.31;;;23.03;45.47
83183;BME280;73077;49.898;16.450;2023-10-09T06:39:56;97438.03;;;22.98;45.72
83183;BME280;73077;49.898;16.450;2023-10-09T06:42:25;97441.59;;;22.91;45.64
83183;BME280;73077;49.898;16.450;2023-10-09T06:45:08;97431.69;;;22.78;45.95
83183;BME280;73077;49.898;16.450;2023-10-09T06:47:37;97435.50;;;22.75;45.94
83183;BME280;73077;49.898;16.450;2023-10-09T06:50:18;97446.88;;;22.76;46.17
83183;BME280;73077;49.898;16.450;2023-10-09T06:52:48;97451.31;;;22.75;46.07
83183;BME280;73077;49.898;16.450;2023-10-09T06:55:24;97437.22;;;22.83;45.80
83183;BME280;73077;49.898;16.450;2023-10-09T06:58:22;97431.16;;;22.97;45.56
83183;BME280;73077;49.898;16.450;2023-10-09T07:00:54;97406.75;;;23.10;45.18
83183;BME280;73077;49.898;16.450;2023-10-09T07:03:28;97402.75;;;23.14;44.89
83183;BME280;73077;49.898;16.450;2023-10-09T07:06:05;97415.38;;;23.18;44.81
83183;BME280;73077;49.898;16.450;2023-10-09T07:08:37;97406.34;;;23.27;44.74
83183;BME280;73077;49.898;16.450;2023-10-09T07:11:06;97405.59;;;23.33;44.77
83183;BME280;73077;49.898;16.450;2023-10-09T07:14:14;97395.88;;;23.34;44.62
83183;BME280;73077;49.898;16.450;2023-10-09T07:17:06;97386.09;;;23.34;44.45
83183;BME280;73077;49.898;16.450;2023-10-09T07:19:51;97362.78;;;23.31;44.85
83183;BME280;73077;49.898;16.450;2023-10-09T07:22:17;97371.69;;;23.30;44.72
83183;BME280;73077;49.898;16.450;2023-10-09T07:24:49;97351.75;;;23.28;44.81
83183;BME280;73077;49.898;16.450;2023-10-09T07:27:20;97359.84;;;23.26;44.83
83183;BME280;73077;49.898;16.450;2023-10-09T07:30:09;97375.63;;;23.20;45.08
83183;BME280;73077;49.898;16.450;2023-10-09T07:32:59;97371.16;;;23.20;45.02
83183;BME280;73077;49.898;16.450;2023-10-09T07:35:43;97363.81;;;23.16;44.96
83183;BME280;73077;49.898;16.450;2023-10-09T07:38:25;97355.53;;;23.19;45.06
83183;BME280;73077;49.898;16.450;2023-10-09T07:40:56;97362.97;;;23.15;45.16
83183;BME280;73077;49.898;16.450;2023-10-09T07:43:46;97366.19;;;23.11;45.17
83183;BME280;73077;49.898;16.450;2023-10-09T07:46:18;97386.56;;;23.17;45.21
83183;BME280;73077;49.898;16.450;2023-10-09T07:49:05;97381.44;;;23.15;45.17
83183;BME280;73077;49.898;16.450;2023-10-09T07:51:40;97387.28;;;23.11;45.19
83183;BME280;73077;49.898;16.450;2023-10-09T07:54:09;97391.91;;;23.09;45.15
83183;BME280;73077;49.898;16.450;2023-10-09T07:56:42;97377.47;;;23.05;45.21
83183;BME280;73077;49.898;16.450;2023-10-09T07:59:12;97382.75;;;23.05;45.28
83183;BME280;73077;49.898;16.450;2023-10-09T08:01:49;97382.28;;;23.01;45.35
83183;BME280;73077;49.898;16.450;2023-10-09T08:04:19;97380.84;;;22.99;45.41
83183;BME280;73077;49.898;16.450;2023-10-09T08:07:09;97382.56;;;22.92;45.56
83183;BME280;73077;49.898;16.450;2023-10-09T08:09:36;97377.75;;;22.95;45.33
83183;BME280;73077;49.898;16.450;2023-10-09T08:12:12;97355.03;;;22.94;45.58
83183;BME280;73077;49.898;16.450;2023-10-09T08:14:58;97361.06;;;22.88;45.66
83183;BME280;73077;49.898;16.450;2023-10-09T08:20:30;97376.31;;;22.93;45.48
83183;BME280;73077;49.898;16.450;2023-10-09T08:23:22;97377.75;;;22.95;45.50
83183;BME280;73077;49.898;16.450;2023-10-09T08:26:02;97383.75;;;23.04;44.99
83183;BME280;73077;49.898;16.450;2023-10-09T08:28:44;97379.53;;;23.09;45.18
83183;BME280;73077;49.898;16.450;2023-10-09T08:31:16;97382.88;;;23.18;45.04
83183;BME280;73077;49.898;16.450;2023-10-09T08:33:47;97370.59;;;23.25;44.57
83183;BME280;73077;49.898;16.450;2023-10-09T08:36:36;97356.66;;;23.31;44.61
83183;BME280;73077;49.898;16.450;2023-10-09T08:39:05;97357.50;;;23.31;44.53
83183;BME280;73077;49.898;16.450;2023-10-09T08:41:54;97373.94;;;23.33;44.54
83183;BME280;73077;49.898;16.450;2023-10-09T08:44:27;97373.75;;;23.35;44.51
83183;BME280;73077;49.898;16.450;2023-10-09T08:46:55;97375.75;;;23.33;44.74
83183;BME280;73077;49.898;16.450;2023-10-09T08:49:23;97374.13;;;23.32;44.68
83183;BME280;73077;49.898;16.450;2023-10-09T08:51:50;97372.50;;;23.31;44.75
83183;BME280;73077;49.898;16.450;2023-10-09T08:54:19;97366.41;;;23.30;44.70
83183;BME280;73077;49.898;16.450;2023-10-09T08:56:46;97376.72;;;23.25;44.83
83183;BME280;73077;49.898;16.450;2023-10-09T08:59:18;97384.63;;;23.25;45.00
83183;BME280;73077;49.898;16.450;2023-10-09T09:01:48;97379.34;;;23.25;44.98
83183;BME280;73077;49.898;16.450;2023-10-09T09:04:37;97370.34;;;23.20;45.02
83183;BME280;73077;49.898;16.450;2023-10-09T09:07:25;97369.53;;;23.19;44.96
83183;BME280;73077;49.898;16.450;2023-10-09T09:09:59;97373.97;;;23.19;45.03
83183;BME280;73077;49.898;16.450;2023-10-09T09:12:46;97378.81;;;23.15;45.12
83183;BME280;73077;49.898;16.450;2023-10-09T09:15:16;97380.63;;;23.15;45.05
83183;BME280;73077;49.898;16.450;2023-10-09T09:17:46;97377.19;;;23.14;45.03
83183;BME280;73077;49.898;16.450;2023-10-09T09:20:25;97374.91;;;23.11;45.09
83183;BME280;73077;49.898;16.450;2023-10-09T09:23:11;97365.53;;;23.09;45.27
83183;BME280;73077;49.898;16.450;2023-10-09T09:25:45;97366.09;;;23.04;45.41
83183;BME280;73077;49.898;16.450;2023-10-09T09:28:12;97363.47;;;23.04;45.14
83183;BME280;73077;49.898;16.450;2023-10-09T09:30:45;97357.94;;;22.99;45.28
83183;BME280;73077;49.898;16.450;2023-10-09T09:33:27;97357.13;;;22.99;45.55
83183;BME280;73077;49.898;16.450;2023-10-09T09:38:26;97359.13;;;22.97;45.35
83183;BME280;73077;49.898;16.450;2023-10-09T09:40:56;97358.66;;;22.93;45.44
83183;BME280;73077;49.898;16.450;2023-10-09T09:43:23;97348.50;;;22.90;45.35
83183;BME280;73077;49.898;16.450;2023-10-09T09:45:52;97343.84;;;22.92;45.50
83183;BME280;73077;49.898;16.450;2023-10-09T09:48:19;97348.50;;;22.90;45.38
83183;BME280;73077;49.898;16.450;2023-10-09T09:50:46;97350.66;;;23.01;45.31
83183;BME280;73077;49.898;16.450;2023-10-09T09:53:19;97354.44;;;23.13;44.84
83183;BME280;73077;49.898;16.450;2023-10-09T09:55:53;97361.63;;;23.19;44.92
83183;BME280;73077;49.898;16.450;2023-10-09T09:58:27;97364.97;;;23.28;44.59
83183;BME280;73077;49.898;16.450;2023-10-09T10:01:10;97352.84;;;23.33;44.53
83183;BME280;73077;49.898;16.450;2023-10-09T10:03:56;97357.91;;;23.35;44.54
83183;BME280;73077;49.898;16.450;2023-10-09T10:06:31;97347.19;;;23.36;44.48
83183;BME280;73077;49.898;16.450;2023-10-09T10:08:59;97340.88;;;23.37;44.70
83183;BME280;73077;49.898;16.450;2023-10-09T10:11:45;97341.09;;;23.36;44.57
83183;BME280;73077;49.898;16.450;2023-10-09T10:14:14;97363.03;;;23.36;44.56
83183;BME280;73077;49.898;16.450;2023-10-09T10:17:03;97361.56;;;23.34;44.64
83183;BME280;73077;49.898;16.450;2023-10-09T10:20:10;97360.13;;;23.31;44.77
83183;BME280;73077;49.898;16.450;2023-10-09T10:22:47;97357.66;;;23.30;44.66
83183;BME280;73077;49.898;16.450;2023-10-09T10:28:23;97338.13;;;23.24;44.93
83183;BME280;73077;49.898;16.450;2023-10-09T10:31:08;97333.28;;;23.28;44.63
83183;BME280;73077;49.898;16.450;2023-10-09T10:36:21;97333.66;;;23.25;44.89
83183;BME280;73077;49.898;16.450;2023-10-09T10:39:04;97340.75;;;23.24;44.84
83183;BME280;73077;49.898;16.450;2023-10-09T10:41:57;97331.19;;;23.23;44.97
83183;BME280;73077;49.898;16.450;2023-10-09T10:44:33;97325.50;;;23.20;44.95
83183;BME280;73077;49.898;16.450;2023-10-09T10:47:09;97329.50;;;23.16;44.95
83183;BME280;73077;49.898;16.450;2023-10-09T10:49:52;97331.16;;;23.17;45.04
83183;BME280;73077;49.898;16.450;2023-10-09T10:52:25;97341.78;;;23.09;45.13
83183;BME280;73077;49.898;16.450;2023-10-09T10:55:12;97331.25;;;23.09;45.24
83183;BME280;73077;49.898;16.450;2023-10-09T10:57:59;97334.09;;;23.07;45.09
83183;BME280;73077;49.898;16.450;2023-10-09T11:00:39;97334.81;;;23.01;45.27
83183;BME280;73077;49.898;16.450;2023-10-09T11:03:25;97331.72;;;22.98;45.44
83183;BME280;73077;49.898;16.450;2023-10-09T11:06:28;97333.56;;;22.97;45.33
83183;BME280;73077;49.898;16.450;2023-10-09T11:09:06;97326.03;;;22.94;45.47
83183;BME280;73077;49.898;16.450;2023-10-09T11:11:51;97322.50;;;22.87;45.51
83183;BME280;73077;49.898;16.450;2023-10-09T11:14:47;97315.22;;;22.89;45.72
83183;BME280;73077;49.898;16.450;2023-10-09T11:17:34;97308.38;;;22.95;45.28
83183;BME280;73077;49.898;16.450;2023-10-09T11:20:04;97304.63;;;23.04;45.13
83183;BME280;73077;49.898;16.450;2023-10-09T11:22:51;97298.47;;;23.18;44.83
83183;BME280;73077;49.898;16.450;2023-10-09T11:25:37;97296.97;;;23.30;44.48
83183;BME280;73077;49.898;16.450;2023-10-09T11:28:18;97304.78;;;23.38;44.46
83183;BME280;73077;49.898;16.450;2023-10-09T11:31:15;97299.53;;;23.38;44.31
83183;BME280;73077;49.898;16.450;2023-10-09T11:33:46;97293.38;;;23.37;44.25
83183;BME280;73077;49.898;16.450;2023-10-09T11:36:21;97291.06;;;23.43;44.53
83183;BME280;73077;49.898;16.450;2023-10-09T11:39:01;97305.25;;;23.42;44.44
83183;BME280;73077;49.898;16.450;2023-10-09T11:41:44;97306.22;;;23.41;44.45
83183;BME280;73077;49.898;16.450;2023-10-09T11:44:15;97307.25;;;23.40;44.53
83183;BME280;73077;49.898;16.450;2023-10-09T11:47:00;97295.41;;;23.35;44.66
83183;BME280;73077;49.898;16.450;2023-10-09T11:49:56;97297.06;;;23.36;44.72
83183;BME280;73077;49.898;16.450;2023-10-09T11:52:31;97298.41;;;23.32;44.85
83183;BME280;73077;49.898;16.450;2023-10-09T11:54:58;97303.06;;;23.30;44.67
83183;BME280;73077;49.898;16.450;2023-10-09T11:57:25;97294.53;;;23.28;44.89
83183;BME280;73077;49.898;16.450;2023-10-09T11:59:58;97285.59;;;23.29;44.71
83183;BME280;73077;49.898;16.450;2023-10-09T12:02:29;97290.88;;;23.29;44.82
83183;BME280;73077;49.898;16.450;2023-10-09T12:04:56;97282.72;;;23.24;44.93
83183;BME280;73077;49.898;16.450;2023-10-09T12:07:24;97296.91;;;23.23;44.92
83183;BME280;73077;49.898;16.450;2023-10-09T12:09:54;97284.75;;;23.22;44.80
83183;BME280;73077;49.898;16.450;2023-10-09T12:12:22;97280.66;;;23.20;44.94
83183;BME280;73077;49.898;16.450;2023-10-09T12:14:52;97281.03;;;23.17;44.98
83183;BME280;73077;49.898;16.450;2023-10-09T12:17:19;97279.59;;;23.14;44.95
83183;BME280;73077;49.898;16.450;2023-10-09T12:19:49;97280.13;;;23.10;45.17
83183;BME280;73077;49.898;16.450;2023-10-09T12:22:18;97292.88;;;23.06;45.22
83183;BME280;73077;49.898;16.450;2023-10-09T12:24:47;97292.25;;;23.04;45.13
83183;BME280;73077;49.898;16.450;2023-10-09T12:27:16;97281.47;;;22.99;45.33
83183;BME280;73077;49.898;16.450;2023-10-09T12:29:46;97290.72;;;22.95;45.30
83183;BME280;73077;49.898;16.450;2023-10-09T12:32:11;97284.63;;;22.95;45.37
83183;BME280;73077;49.898;16.450;2023-10-09T12:34:39;97278.56;;;22.94;45.52
83183;BME280;73077;49.898;16.450;2023-10-09T12:37:06;97272.66;;;22.92;45.48
83183;BME280;73077;49.898;16.450;2023-10-09T12:39:32;97283.84;;;22.94;45.43
83183;BME280;73077;49.898;16.450;2023-10-09T12:42:06;97277.75;;;22.94;45.52
83183;BME280;73077;49.898;16.450;2023-10-09T12:44:35;97287.22;;;22.88;45.32
83183;BME280;73077;49.898;16.450;2023-10-09T12:47:09;97285.78;;;22.86;45.46
83183;BME280;73077;49.898;16.450;2023-10-09T12:49:40;97277.06;;;22.85;45.45
83183;BME280;73077;49.898;16.450;2023-10-09T12:52:08;97259.78;;;22.83;45.51
83183;BME280;73077;49.898;16.450;2023-10-09T12:54:45;97243.28;;;22.95;45.28
83183;BME280;73077;49.898;16.450;2023-10-09T12:57:11;97236.25;;;23.02;45.05
83183;BME280;73077;49.898;16.450;2023-10-09T12:59:42;97237.56;;;23.13;44.74
83183;BME280;73077;49.898;16.450;2023-10-09T13:02:14;97244.34;;;23.22;44.77
83183;BME280;73077;49.898;16.450;2023-10-09T13:04:56;97247.66;;;23.30;44.47
83183;BME280;73077;49.898;16.450;2023-10-09T13:07:22;97247.47;;;23.32;44.55
83183;BME280;73077;49.898;16.450;2023-10-09T13:09:49;97228.44;;;23.36;44.40
83183;BME280;73077;49.898;16.450;2023-10-09T13:12:34;97225.38;;;23.33;44.67
83183;BME280;73077;49.898;16.450;2023-10-09T13:15:09;97229.28;;;23.37;44.44
83183;BME280;73077;49.898;16.450;2023-10-09T13:17:38;97232.09;;;23.35;44.49
83183;BME280;73077;49.898;16.450;2023-10-09T13:20:05;97232.28;;;23.34;44.64
83183;BME280;73077;49.898;16.450;2023-10-09T13:22:42;97226.19;;;23.33;44.61
83183;BME280;73077;49.898;16.450;2023-10-09T13:25:09;97218.66;;;23.30;44.68
83183;BME280;73077;49.898;16.450;2023-10-09T13:27:50;97239.94;;;23.29;44.73
83183;BME280;73077;49.898;16.450;2023-10-09T13:30:17;97216.19;;;23.29;44.58
83183;BME280;73077;49.898;16.450;2023-10-09T13:32:49;97232.41;;;23.26;44.73
83183;BME280;73077;49.898;16.450;2023-10-09T13:35:19;97226.31;;;23.25;44.87
83183;BME280;73077;49.898;16.450;2023-10-09T13:37:53;97225.88;;;23.22;44.88
83183;BME280;73077;49.898;16.450;2023-10-09T13:40:22;97222.25;;;23.23;44.90
83183;BME280;73077;49.898;16.450;2023-10-09T13:42:54;97226.06;;;23.20;44.84
83183;BME280;73077;49.898;16.450;2023-10-09T13:45:28;97239.25;;;23.20;44.89